This demonstration page uses our WeatherBlox Daily Observations layout. Learn more.

41.55636, -103.73856

Hourly Observations for August 3, 2019

Temp ( °F °C ) Dew Point ( °F °C ) Humidity (%) Winds ( mph kmh ) Pressure ( in mb ) Visibility ( mi km ) Precip ( " mm )
12:53 am 00:53 Clear 64 17.8 60 15.6 87 87 Calm 30.03 1017 10 16.09344 0 0
1:53 am 01:53 Clear 63 17.2 60 15.6 90 90 NE 5 7 30.03 1017 10 16.09344 0 0
2:53 am 02:53 Clear 63 17.2 60 15.6 90 90 Calm 30 1016 10 16.09344 0 0
3:53 am 03:53 Clear 60 15.6 58 14.4 93 93 Calm 30 1016 10 16.09344 0 0
4:53 am 04:53 Clear 60 15.6 59 15 96 96 Calm 30 1016 10 16.09344 0 0
5:53 am 05:53 Sunny 58 14.4 57 13.9 97 97 Calm 30.03 1017 10 16.09344 0 0
6:53 am 06:53 Sunny 63 17.2 61 16.1 93 93 ESE 3 6 30.03 1017 10 16.09344 0 0
7:53 am 07:53 Sunny 68 20 64 17.8 87 87 ESE 8 13 30.03 1017 10 16.09344 0 0
8:53 am 08:53 Sunny 73 22.8 66 18.9 79 79 E 6 9 30.03 1017 10 16.09344 0 0
9:53 am 09:53 Sunny 78 25.6 67 19.4 69 69 ESE 9 15 30 1016 10 16.09344 0 0
10:53 am 10:53 Sunny 82 27.8 67 19.4 60 60 ESE 10 17 30 1016 10 16.09344 0 0
11:53 am 11:53 Sunny 85 29.4 65 18.3 51 51 ESE 10 17 30 1016 10 16.09344 0 0
12:53 pm 12:53 Sunny 89 31.7 63 17.2 42 42 SE 9 15 29.97 1015 10 16.09344 0 0
1:53 pm 13:53 Sunny 90 32.2 63 17.2 41 41 SE 9 15 29.97 1015 10 16.09344 0 0
2:53 pm 14:53 Sunny 92 33.3 63 17.2 38 38 ESE 12 19 29.94 1014 10 16.09344 0 0
3:53 pm 15:53 Sunny 92 33.3 64 17.8 40 40 E 15 24 29.91 1013 10 16.09344 0 0
4:53 pm 16:53 Sunny 91 32.8 64 17.8 41 41 ESE 12 19 29.91 1013 10 16.09344 0 0
5:53 pm 17:53 Sunny 86 30 65 18.3 49 49 ESE 9 15 29.91 1013 10 16.09344 0 0
6:53 pm 18:53 Sunny 83 28.3 66 18.9 57 57 ESE 7 11 29.94 1014 10 16.09344 0 0
7:53 pm 19:53 Sunny 80 26.7 67 19.4 64 64 E 8 13 29.91 1013 10 16.09344 0 0
8:53 pm 20:53 Clear 75 23.9 66 18.9 74 74 ESE 8 13 29.94 1014 10 16.09344 0 0
9:53 pm 21:53 Clear 73 22.8 66 18.9 79 79 ESE 7 11 29.97 1015 10 16.09344 0 0
10:53 pm 22:53 Partly Cloudy 71 21.7 66 18.9 84 84 ESE 7 11 29.97 1015 10 16.09344 0 0
11:53 pm 23:53 Clear 70 21.1 64 17.8 82 82 ESE 6 9 29.97 1015 10 16.09344 0 0

Powered by AerisWeather